Preview of NWS' New Version of Forecast
This preview is not operational and should not be used for support decisions.

Terminal Aerodrome Forecast (TAF)

Issued by National Weather Service (NWS)

                            
000
FTUS46 KMTR 231731
TAFSTS
TAF
KSTS 231731Z 2318/2418 32007KT P6SM SKC
     FM232000 20008KT P6SM SKC
     FM240300 VRB03KT P6SM SKC
     FM240700 VRB03KT P6SM SKC WS020/03027KT
     FM241200 VRB04KT P6SM SKC=